Armstrong, Alabama
Current Conditions -  °F | °C
As of 5:55 PM on Friday 31 Oct 2014 (Local Time) from KAUO Reporting Station
Clear Clear  
Wind Chill: 14°   Ceiling: Unl
Heat Index: 14°   Visibility: 10mi
Dew Point:   Wind: 8mph
Humidity: 48%   Direction: 340°NNW
Pressure: 29.96"   Gusts: NA
Location:  32.2227°N, 85.6394°W
Report Text: KAUO 312255Z AUTO 34007KT 10SM CLR 14/03 A2996 RMK AO1
Loading
Personal Weather Stations






























Interactive Weather Map New forecast layout! Learn more

10-Day Weather Forecast

Advertisements
Track Severe Weather on mobile